sensor_id;sensor_type;location;lat;lon;timestamp;P1;durP1;ratioP1;P2;durP2;ratioP2
76701;SDS011;65630;44.498;0.166;2023-05-10T00:02:54;18.97;;;4.37;;
76701;SDS011;65630;44.498;0.166;2023-05-10T00:08:27;27.70;;;3.93;;
76701;SDS011;65630;44.498;0.166;2023-05-10T00:14:00;19.60;;;4.40;;
76701;SDS011;65630;44.498;0.166;2023-05-10T00:19:33;26.20;;;5.60;;
76701;SDS011;65630;44.498;0.166;2023-05-10T00:25:07;19.33;;;4.00;;
76701;SDS011;65630;44.498;0.166;2023-05-10T00:30:41;36.97;;;4.37;;
76701;SDS011;65630;44.498;0.166;2023-05-10T00:36:13;22.77;;;4.20;;
76701;SDS011;65630;44.498;0.166;2023-05-10T00:41:47;21.73;;;4.33;;
76701;SDS011;65630;44.498;0.166;2023-05-10T00:47:20;23.00;;;4.73;;
76701;SDS011;65630;44.498;0.166;2023-05-10T00:52:52;15.97;;;3.93;;
76701;SDS011;65630;44.498;0.166;2023-05-10T00:58:27;21.07;;;4.77;;
76701;SDS011;65630;44.498;0.166;2023-05-10T01:03:58;29.40;;;4.10;;
76701;SDS011;65630;44.498;0.166;2023-05-10T01:09:30;25.30;;;4.33;;
76701;SDS011;65630;44.498;0.166;2023-05-10T01:15:02;23.50;;;4.13;;
76701;SDS011;65630;44.498;0.166;2023-05-10T01:20:38;28.20;;;3.60;;
76701;SDS011;65630;44.498;0.166;2023-05-10T01:37:16;33.27;;;5.03;;
76701;SDS011;65630;44.498;0.166;2023-05-10T01:42:49;21.50;;;3.57;;
76701;SDS011;65630;44.498;0.166;2023-05-10T01:48:19;15.50;;;3.57;;
76701;SDS011;65630;44.498;0.166;2023-05-10T01:53:54;21.97;;;3.73;;
76701;SDS011;65630;44.498;0.166;2023-05-10T01:59:25;15.20;;;2.70;;
76701;SDS011;65630;44.498;0.166;2023-05-10T02:04:57;24.00;;;4.03;;
76701;SDS011;65630;44.498;0.166;2023-05-10T02:10:30;21.87;;;3.17;;
76701;SDS011;65630;44.498;0.166;2023-05-10T02:16:04;22.30;;;4.63;;
76701;SDS011;65630;44.498;0.166;2023-05-10T02:21:37;24.07;;;4.03;;
76701;SDS011;65630;44.498;0.166;2023-05-10T02:27:09;15.07;;;3.00;;
76701;SDS011;65630;44.498;0.166;2023-05-10T02:32:42;23.23;;;4.70;;
76701;SDS011;65630;44.498;0.166;2023-05-10T02:38:15;15.70;;;2.57;;
76701;SDS011;65630;44.498;0.166;2023-05-10T02:43:48;20.33;;;3.13;;
76701;SDS011;65630;44.498;0.166;2023-05-10T02:49:20;24.77;;;2.97;;
76701;SDS011;65630;44.498;0.166;2023-05-10T02:54:54;16.23;;;2.57;;
76701;SDS011;65630;44.498;0.166;2023-05-10T03:00:26;20.43;;;3.00;;
76701;SDS011;65630;44.498;0.166;2023-05-10T03:05:58;13.53;;;3.47;;
76701;SDS011;65630;44.498;0.166;2023-05-10T03:11:35;21.20;;;3.43;;
76701;SDS011;65630;44.498;0.166;2023-05-10T03:17:06;13.63;;;3.57;;
76701;SDS011;65630;44.498;0.166;2023-05-10T03:22:37;16.73;;;2.30;;
76701;SDS011;65630;44.498;0.166;2023-05-10T03:28:07;25.87;;;4.60;;
76701;SDS011;65630;44.498;0.166;2023-05-10T03:33:45;27.63;;;3.90;;
76701;SDS011;65630;44.498;0.166;2023-05-10T03:39:13;19.20;;;2.67;;
76701;SDS011;65630;44.498;0.166;2023-05-10T03:44:46;21.17;;;2.97;;
76701;SDS011;65630;44.498;0.166;2023-05-10T03:50:18;25.47;;;2.57;;
76701;SDS011;65630;44.498;0.166;2023-05-10T03:55:51;17.93;;;2.63;;
76701;SDS011;65630;44.498;0.166;2023-05-10T04:01:23;17.80;;;2.47;;
76701;SDS011;65630;44.498;0.166;2023-05-10T04:06:56;19.70;;;2.97;;
76701;SDS011;65630;44.498;0.166;2023-05-10T04:12:29;19.40;;;3.73;;
76701;SDS011;65630;44.498;0.166;2023-05-10T04:18:02;16.63;;;2.00;;
76701;SDS011;65630;44.498;0.166;2023-05-10T04:23:34;17.50;;;2.87;;
76701;SDS011;65630;44.498;0.166;2023-05-10T04:29:06;14.40;;;2.70;;
76701;SDS011;65630;44.498;0.166;2023-05-10T04:34:39;15.83;;;2.53;;
76701;SDS011;65630;44.498;0.166;2023-05-10T04:40:13;22.40;;;4.10;;
76701;SDS011;65630;44.498;0.166;2023-05-10T04:45:47;17.63;;;3.67;;
76701;SDS011;65630;44.498;0.166;2023-05-10T04:51:20;14.63;;;2.83;;
76701;SDS011;65630;44.498;0.166;2023-05-10T04:56:53;17.07;;;3.13;;
76701;SDS011;65630;44.498;0.166;2023-05-10T05:02:26;17.20;;;2.97;;
76701;SDS011;65630;44.498;0.166;2023-05-10T05:07:58;19.90;;;3.67;;
76701;SDS011;65630;44.498;0.166;2023-05-10T05:13:31;21.63;;;2.93;;
76701;SDS011;65630;44.498;0.166;2023-05-10T05:19:05;15.10;;;2.90;;
76701;SDS011;65630;44.498;0.166;2023-05-10T05:24:38;8.80;;;2.80;;
76701;SDS011;65630;44.498;0.166;2023-05-10T05:30:10;19.10;;;3.00;;
76701;SDS011;65630;44.498;0.166;2023-05-10T05:35:44;10.60;;;3.00;;
76701;SDS011;65630;44.498;0.166;2023-05-10T05:41:17;12.73;;;2.57;;
76701;SDS011;65630;44.498;0.166;2023-05-10T05:46:50;14.87;;;2.50;;
76701;SDS011;65630;44.498;0.166;2023-05-10T05:52:23;14.80;;;3.77;;
76701;SDS011;65630;44.498;0.166;2023-05-10T05:57:56;12.17;;;2.03;;
76701;SDS011;65630;44.498;0.166;2023-05-10T06:03:29;18.90;;;3.30;;
76701;SDS011;65630;44.498;0.166;2023-05-10T06:09:02;12.10;;;2.33;;
76701;SDS011;65630;44.498;0.166;2023-05-10T06:14:35;18.23;;;3.43;;
76701;SDS011;65630;44.498;0.166;2023-05-10T06:20:09;13.47;;;2.33;;
76701;SDS011;65630;44.498;0.166;2023-05-10T06:25:42;13.30;;;2.87;;
76701;SDS011;65630;44.498;0.166;2023-05-10T06:31:15;19.00;;;5.87;;
76701;SDS011;65630;44.498;0.166;2023-05-10T06:36:48;23.17;;;2.80;;
76701;SDS011;65630;44.498;0.166;2023-05-10T06:42:21;16.33;;;2.97;;
76701;SDS011;65630;44.498;0.166;2023-05-10T06:47:54;21.30;;;2.43;;
76701;SDS011;65630;44.498;0.166;2023-05-10T06:53:27;16.60;;;2.70;;
76701;SDS011;65630;44.498;0.166;2023-05-10T06:58:59;11.63;;;2.37;;
76701;SDS011;65630;44.498;0.166;2023-05-10T07:04:33;15.50;;;2.30;;
76701;SDS011;65630;44.498;0.166;2023-05-10T07:10:06;14.13;;;2.20;;
76701;SDS011;65630;44.498;0.166;2023-05-10T07:15:39;15.30;;;3.10;;
76701;SDS011;65630;44.498;0.166;2023-05-10T07:21:12;8.50;;;1.80;;
76701;SDS011;65630;44.498;0.166;2023-05-10T07:26:44;12.93;;;1.63;;
76701;SDS011;65630;44.498;0.166;2023-05-10T07:32:17;9.23;;;1.67;;
76701;SDS011;65630;44.498;0.166;2023-05-10T07:43:22;10.83;;;1.77;;
76701;SDS011;65630;44.498;0.166;2023-05-10T07:48:55;10.47;;;1.87;;
76701;SDS011;65630;44.498;0.166;2023-05-10T07:54:27;9.80;;;1.53;;
76701;SDS011;65630;44.498;0.166;2023-05-10T08:00:00;11.10;;;2.27;;
76701;SDS011;65630;44.498;0.166;2023-05-10T08:05:34;14.87;;;2.90;;
76701;SDS011;65630;44.498;0.166;2023-05-10T08:11:08;11.97;;;1.60;;
76701;SDS011;65630;44.498;0.166;2023-05-10T08:16:41;8.47;;;2.73;;
76701;SDS011;65630;44.498;0.166;2023-05-10T08:22:14;8.80;;;1.70;;
76701;SDS011;65630;44.498;0.166;2023-05-10T08:27:46;10.97;;;3.83;;
76701;SDS011;65630;44.498;0.166;2023-05-10T08:33:18;8.67;;;3.03;;
76701;SDS011;65630;44.498;0.166;2023-05-10T08:38:50;9.40;;;1.90;;
76701;SDS011;65630;44.498;0.166;2023-05-10T08:44:22;8.30;;;1.23;;
76701;SDS011;65630;44.498;0.166;2023-05-10T08:49:56;5.87;;;1.40;;
76701;SDS011;65630;44.498;0.166;2023-05-10T08:55:30;11.33;;;1.60;;
76701;SDS011;65630;44.498;0.166;2023-05-10T09:01:04;11.97;;;1.37;;
76701;SDS011;65630;44.498;0.166;2023-05-10T09:06:36;6.97;;;1.60;;
76701;SDS011;65630;44.498;0.166;2023-05-10T09:12:09;8.57;;;1.53;;
76701;SDS011;65630;44.498;0.166;2023-05-10T09:17:41;12.03;;;1.77;;
76701;SDS011;65630;44.498;0.166;2023-05-10T09:23:15;9.77;;;2.60;;
76701;SDS011;65630;44.498;0.166;2023-05-10T09:28:51;8.97;;;2.77;;
76701;SDS011;65630;44.498;0.166;2023-05-10T09:34:28;9.53;;;2.13;;
76701;SDS011;65630;44.498;0.166;2023-05-10T09:39:54;9.63;;;1.33;;
76701;SDS011;65630;44.498;0.166;2023-05-10T09:45:27;12.27;;;1.87;;
76701;SDS011;65630;44.498;0.166;2023-05-10T09:50:58;10.37;;;1.57;;
76701;SDS011;65630;44.498;0.166;2023-05-10T09:56:33;16.63;;;2.93;;
76701;SDS011;65630;44.498;0.166;2023-05-10T10:02:04;9.97;;;2.70;;
76701;SDS011;65630;44.498;0.166;2023-05-10T10:07:37;10.67;;;1.63;;
76701;SDS011;65630;44.498;0.166;2023-05-10T10:13:09;11.67;;;1.73;;
76701;SDS011;65630;44.498;0.166;2023-05-10T10:18:41;8.43;;;2.40;;
76701;SDS011;65630;44.498;0.166;2023-05-10T10:24:14;7.40;;;0.97;;
76701;SDS011;65630;44.498;0.166;2023-05-10T10:29:49;4.17;;;0.93;;
76701;SDS011;65630;44.498;0.166;2023-05-10T10:35:18;6.23;;;0.90;;
76701;SDS011;65630;44.498;0.166;2023-05-10T10:40:50;4.47;;;0.80;;
76701;SDS011;65630;44.498;0.166;2023-05-10T10:46:24;1.77;;;0.63;;
76701;SDS011;65630;44.498;0.166;2023-05-10T10:57:31;2.97;;;0.93;;
76701;SDS011;65630;44.498;0.166;2023-05-10T11:03:03;3.23;;;0.83;;
76701;SDS011;65630;44.498;0.166;2023-05-10T11:08:34;9.03;;;2.20;;
76701;SDS011;65630;44.498;0.166;2023-05-10T11:14:07;7.30;;;1.57;;
76701;SDS011;65630;44.498;0.166;2023-05-10T11:19:53;4.07;;;0.93;;
76701;SDS011;65630;44.498;0.166;2023-05-10T11:25:14;9.30;;;1.37;;
76701;SDS011;65630;44.498;0.166;2023-05-10T11:30:47;7.93;;;1.60;;
76701;SDS011;65630;44.498;0.166;2023-05-10T11:36:20;7.93;;;1.43;;
76701;SDS011;65630;44.498;0.166;2023-05-10T11:41:53;6.77;;;2.13;;
76701;SDS011;65630;44.498;0.166;2023-05-10T11:47:25;7.00;;;1.33;;
76701;SDS011;65630;44.498;0.166;2023-05-10T11:52:58;4.23;;;0.93;;
76701;SDS011;65630;44.498;0.166;2023-05-10T11:58:30;8.47;;;1.20;;
76701;SDS011;65630;44.498;0.166;2023-05-10T12:04:04;7.20;;;1.20;;
76701;SDS011;65630;44.498;0.166;2023-05-10T12:09:43;7.40;;;1.20;;
76701;SDS011;65630;44.498;0.166;2023-05-10T12:15:11;7.37;;;1.43;;
76701;SDS011;65630;44.498;0.166;2023-05-10T12:20:42;5.97;;;1.40;;
76701;SDS011;65630;44.498;0.166;2023-05-10T12:26:16;7.43;;;1.43;;
76701;SDS011;65630;44.498;0.166;2023-05-10T12:31:50;8.30;;;2.13;;
76701;SDS011;65630;44.498;0.166;2023-05-10T12:37:24;5.07;;;1.13;;
76701;SDS011;65630;44.498;0.166;2023-05-10T12:42:55;5.30;;;0.70;;
76701;SDS011;65630;44.498;0.166;2023-05-10T12:48:27;4.80;;;1.20;;
76701;SDS011;65630;44.498;0.166;2023-05-10T12:53:59;4.00;;;0.93;;
76701;SDS011;65630;44.498;0.166;2023-05-10T12:59:31;7.43;;;0.97;;
76701;SDS011;65630;44.498;0.166;2023-05-10T13:05:05;7.37;;;2.30;;
76701;SDS011;65630;44.498;0.166;2023-05-10T13:10:37;5.03;;;1.70;;
76701;SDS011;65630;44.498;0.166;2023-05-10T13:16:11;2.83;;;1.00;;
76701;SDS011;65630;44.498;0.166;2023-05-10T13:21:43;4.20;;;0.60;;
76701;SDS011;65630;44.498;0.166;2023-05-10T13:27:15;5.67;;;1.17;;
76701;SDS011;65630;44.498;0.166;2023-05-10T13:32:50;8.17;;;2.77;;
76701;SDS011;65630;44.498;0.166;2023-05-10T13:38:22;2.87;;;0.50;;
76701;SDS011;65630;44.498;0.166;2023-05-10T13:43:56;4.60;;;0.80;;
76701;SDS011;65630;44.498;0.166;2023-05-10T13:49:29;4.37;;;1.10;;
76701;SDS011;65630;44.498;0.166;2023-05-10T13:55:01;7.10;;;1.20;;
76701;SDS011;65630;44.498;0.166;2023-05-10T14:00:34;6.77;;;1.80;;
76701;SDS011;65630;44.498;0.166;2023-05-10T14:06:07;8.70;;;2.60;;
76701;SDS011;65630;44.498;0.166;2023-05-10T14:11:39;5.47;;;1.33;;
76701;SDS011;65630;44.498;0.166;2023-05-10T14:17:11;8.80;;;1.70;;
76701;SDS011;65630;44.498;0.166;2023-05-10T14:22:43;12.17;;;1.20;;
76701;SDS011;65630;44.498;0.166;2023-05-10T14:28:17;7.27;;;1.83;;
76701;SDS011;65630;44.498;0.166;2023-05-10T14:33:50;7.63;;;1.03;;
76701;SDS011;65630;44.498;0.166;2023-05-10T14:39:21;10.73;;;1.40;;
76701;SDS011;65630;44.498;0.166;2023-05-10T14:44:53;7.10;;;1.13;;
76701;SDS011;65630;44.498;0.166;2023-05-10T14:50:26;3.97;;;0.70;;
76701;SDS011;65630;44.498;0.166;2023-05-10T14:56:00;7.40;;;0.97;;
76701;SDS011;65630;44.498;0.166;2023-05-10T15:01:33;6.37;;;1.57;;
76701;SDS011;65630;44.498;0.166;2023-05-10T15:07:07;9.23;;;1.40;;
76701;SDS011;65630;44.498;0.166;2023-05-10T15:12:42;7.23;;;1.47;;
76701;SDS011;65630;44.498;0.166;2023-05-10T15:18:16;4.53;;;1.40;;
76701;SDS011;65630;44.498;0.166;2023-05-10T15:23:49;6.07;;;0.90;;
76701;SDS011;65630;44.498;0.166;2023-05-10T15:29:22;5.47;;;1.00;;
76701;SDS011;65630;44.498;0.166;2023-05-10T15:40:28;6.10;;;0.97;;
76701;SDS011;65630;44.498;0.166;2023-05-10T15:46:01;7.47;;;1.10;;
76701;SDS011;65630;44.498;0.166;2023-05-10T15:51:33;6.07;;;0.87;;
76701;SDS011;65630;44.498;0.166;2023-05-10T15:57:05;3.47;;;0.70;;
76701;SDS011;65630;44.498;0.166;2023-05-10T16:02:39;3.13;;;0.70;;
76701;SDS011;65630;44.498;0.166;2023-05-10T16:08:11;11.53;;;1.33;;
76701;SDS011;65630;44.498;0.166;2023-05-10T16:13:44;5.97;;;1.30;;
76701;SDS011;65630;44.498;0.166;2023-05-10T16:19:17;11.80;;;4.10;;
76701;SDS011;65630;44.498;0.166;2023-05-10T16:24:49;14.27;;;1.30;;
76701;SDS011;65630;44.498;0.166;2023-05-10T16:30:21;20.63;;;2.63;;
76701;SDS011;65630;44.498;0.166;2023-05-10T16:35:53;7.10;;;2.03;;
76701;SDS011;65630;44.498;0.166;2023-05-10T16:41:26;7.73;;;1.20;;
76701;SDS011;65630;44.498;0.166;2023-05-10T16:46:59;4.83;;;1.47;;
76701;SDS011;65630;44.498;0.166;2023-05-10T16:52:33;13.20;;;1.20;;
76701;SDS011;65630;44.498;0.166;2023-05-10T16:58:04;7.83;;;1.37;;
76701;SDS011;65630;44.498;0.166;2023-05-10T17:03:37;8.77;;;1.77;;
76701;SDS011;65630;44.498;0.166;2023-05-10T17:09:10;8.67;;;1.83;;
76701;SDS011;65630;44.498;0.166;2023-05-10T17:14:43;4.17;;;1.10;;
76701;SDS011;65630;44.498;0.166;2023-05-10T17:20:16;9.67;;;3.10;;
76701;SDS011;65630;44.498;0.166;2023-05-10T17:25:49;6.37;;;1.10;;
76701;SDS011;65630;44.498;0.166;2023-05-10T17:31:23;5.60;;;1.17;;
76701;SDS011;65630;44.498;0.166;2023-05-10T17:36:56;6.97;;;1.50;;
76701;SDS011;65630;44.498;0.166;2023-05-10T17:42:29;6.63;;;1.30;;
76701;SDS011;65630;44.498;0.166;2023-05-10T17:48:01;6.83;;;1.40;;
76701;SDS011;65630;44.498;0.166;2023-05-10T17:53:33;7.80;;;1.47;;
76701;SDS011;65630;44.498;0.166;2023-05-10T17:59:06;5.90;;;1.20;;
76701;SDS011;65630;44.498;0.166;2023-05-10T18:04:38;5.63;;;1.27;;
76701;SDS011;65630;44.498;0.166;2023-05-10T18:10:11;14.40;;;3.23;;
76701;SDS011;65630;44.498;0.166;2023-05-10T18:15:43;11.17;;;1.17;;
76701;SDS011;65630;44.498;0.166;2023-05-10T18:21:16;9.27;;;2.60;;
76701;SDS011;65630;44.498;0.166;2023-05-10T18:26:48;9.80;;;2.80;;
76701;SDS011;65630;44.498;0.166;2023-05-10T18:32:22;12.57;;;3.30;;
76701;SDS011;65630;44.498;0.166;2023-05-10T18:37:54;7.00;;;1.13;;
76701;SDS011;65630;44.498;0.166;2023-05-10T18:43:26;10.57;;;1.47;;
76701;SDS011;65630;44.498;0.166;2023-05-10T18:49:00;8.67;;;2.37;;
76701;SDS011;65630;44.498;0.166;2023-05-10T18:54:32;7.77;;;1.23;;
76701;SDS011;65630;44.498;0.166;2023-05-10T19:00:07;9.27;;;2.20;;
76701;SDS011;65630;44.498;0.166;2023-05-10T19:05:38;9.70;;;2.07;;
76701;SDS011;65630;44.498;0.166;2023-05-10T19:11:11;9.60;;;1.20;;
76701;SDS011;65630;44.498;0.166;2023-05-10T19:16:44;9.23;;;1.63;;
76701;SDS011;65630;44.498;0.166;2023-05-10T19:22:16;6.30;;;2.03;;
76701;SDS011;65630;44.498;0.166;2023-05-10T19:27:49;11.63;;;2.47;;
76701;SDS011;65630;44.498;0.166;2023-05-10T19:33:22;8.70;;;1.40;;
76701;SDS011;65630;44.498;0.166;2023-05-10T19:38:56;8.97;;;1.20;;
76701;SDS011;65630;44.498;0.166;2023-05-10T19:44:29;5.17;;;1.17;;
76701;SDS011;65630;44.498;0.166;2023-05-10T19:50:01;6.00;;;1.30;;
76701;SDS011;65630;44.498;0.166;2023-05-10T19:55:35;11.37;;;2.00;;
76701;SDS011;65630;44.498;0.166;2023-05-10T20:01:08;21.60;;;4.27;;
76701;SDS011;65630;44.498;0.166;2023-05-10T20:06:41;7.50;;;1.43;;
76701;SDS011;65630;44.498;0.166;2023-05-10T20:12:14;8.80;;;1.73;;
76701;SDS011;65630;44.498;0.166;2023-05-10T20:17:47;9.37;;;2.00;;
76701;SDS011;65630;44.498;0.166;2023-05-10T20:23:19;7.53;;;1.73;;
76701;SDS011;65630;44.498;0.166;2023-05-10T20:28:52;9.00;;;1.40;;
76701;SDS011;65630;44.498;0.166;2023-05-10T20:34:26;11.30;;;1.77;;
76701;SDS011;65630;44.498;0.166;2023-05-10T20:39:58;7.17;;;2.00;;
76701;SDS011;65630;44.498;0.166;2023-05-10T20:45:32;11.17;;;1.40;;
76701;SDS011;65630;44.498;0.166;2023-05-10T20:51:04;11.53;;;1.40;;
76701;SDS011;65630;44.498;0.166;2023-05-10T20:56:38;7.67;;;1.30;;
76701;SDS011;65630;44.498;0.166;2023-05-10T21:02:11;15.47;;;1.73;;
76701;SDS011;65630;44.498;0.166;2023-05-10T21:07:44;16.03;;;2.47;;
76701;SDS011;65630;44.498;0.166;2023-05-10T21:13:17;12.47;;;2.33;;
76701;SDS011;65630;44.498;0.166;2023-05-10T21:18:50;5.60;;;1.63;;
76701;SDS011;65630;44.498;0.166;2023-05-10T21:24:23;9.77;;;1.83;;
76701;SDS011;65630;44.498;0.166;2023-05-10T21:29:55;3.67;;;1.07;;
76701;SDS011;65630;44.498;0.166;2023-05-10T21:35:27;13.30;;;1.40;;
76701;SDS011;65630;44.498;0.166;2023-05-10T21:41:00;16.37;;;2.30;;
76701;SDS011;65630;44.498;0.166;2023-05-10T21:46:32;10.27;;;2.53;;
76701;SDS011;65630;44.498;0.166;2023-05-10T21:52:06;19.53;;;3.90;;
76701;SDS011;65630;44.498;0.166;2023-05-10T21:57:39;7.53;;;1.47;;
76701;SDS011;65630;44.498;0.166;2023-05-10T22:03:11;10.70;;;2.20;;
76701;SDS011;65630;44.498;0.166;2023-05-10T22:08:43;11.07;;;2.10;;
76701;SDS011;65630;44.498;0.166;2023-05-10T22:14:17;9.37;;;1.77;;
76701;SDS011;65630;44.498;0.166;2023-05-10T22:19:50;14.13;;;1.67;;
76701;SDS011;65630;44.498;0.166;2023-05-10T22:25:23;10.17;;;2.00;;
76701;SDS011;65630;44.498;0.166;2023-05-10T22:30:56;9.63;;;2.30;;
76701;SDS011;65630;44.498;0.166;2023-05-10T22:36:28;14.03;;;2.13;;
76701;SDS011;65630;44.498;0.166;2023-05-10T22:42:00;8.00;;;2.73;;
76701;SDS011;65630;44.498;0.166;2023-05-10T22:47:33;13.00;;;3.00;;
76701;SDS011;65630;44.498;0.166;2023-05-10T22:53:06;9.10;;;2.37;;
76701;SDS011;65630;44.498;0.166;2023-05-10T22:58:38;15.80;;;3.43;;
76701;SDS011;65630;44.498;0.166;2023-05-10T23:04:12;9.50;;;1.97;;
76701;SDS011;65630;44.498;0.166;2023-05-10T23:09:44;11.73;;;2.37;;
76701;SDS011;65630;44.498;0.166;2023-05-10T23:15:17;6.67;;;2.33;;
76701;SDS011;65630;44.498;0.166;2023-05-10T23:20:51;19.87;;;2.23;;
76701;SDS011;65630;44.498;0.166;2023-05-10T23:26:24;8.57;;;1.80;;
76701;SDS011;65630;44.498;0.166;2023-05-10T23:31:56;10.37;;;1.63;;
76701;SDS011;65630;44.498;0.166;2023-05-10T23:37:29;10.40;;;2.33;;
76701;SDS011;65630;44.498;0.166;2023-05-10T23:43:02;14.80;;;2.60;;
76701;SDS011;65630;44.498;0.166;2023-05-10T23:48:35;9.13;;;1.40;;
76701;SDS011;65630;44.498;0.166;2023-05-10T23:54:07;17.20;;;4.03;;
76701;SDS011;65630;44.498;0.166;2023-05-10T23:59:39;12.37;;;2.07;;
